sensor_id;sensor_type;location;lat;lon;timestamp;temperature;humidity
26081;DHT22;13991;51.174;4.438;2023-02-15T00:01:16;7.00;99.90
26081;DHT22;13991;51.174;4.438;2023-02-15T00:03:41;7.10;99.90
26081;DHT22;13991;51.174;4.438;2023-02-15T00:06:07;7.20;99.90
26081;DHT22;13991;51.174;4.438;2023-02-15T00:08:33;7.20;99.90
26081;DHT22;13991;51.174;4.438;2023-02-15T00:11:09;7.30;99.90
26081;DHT22;13991;51.174;4.438;2023-02-15T00:13:36;7.40;99.90
26081;DHT22;13991;51.174;4.438;2023-02-15T00:16:05;7.40;99.90
26081;DHT22;13991;51.174;4.438;2023-02-15T00:18:31;7.40;99.90
26081;DHT22;13991;51.174;4.438;2023-02-15T00:20:58;7.40;99.90
26081;DHT22;13991;51.174;4.438;2023-02-15T00:23:24;7.40;99.90
26081;DHT22;13991;51.174;4.438;2023-02-15T00:25:51;7.30;99.90
26081;DHT22;13991;51.174;4.438;2023-02-15T00:28:17;7.30;99.90
26081;DHT22;13991;51.174;4.438;2023-02-15T00:30:42;7.30;99.90
26081;DHT22;13991;51.174;4.438;2023-02-15T00:33:08;7.20;99.90
26081;DHT22;13991;51.174;4.438;2023-02-15T00:35:33;7.10;99.90
26081;DHT22;13991;51.174;4.438;2023-02-15T00:37:59;7.10;99.90
26081;DHT22;13991;51.174;4.438;2023-02-15T00:40:25;7.20;99.90
26081;DHT22;13991;51.174;4.438;2023-02-15T00:42:50;7.10;99.90
26081;DHT22;13991;51.174;4.438;2023-02-15T00:45:16;7.10;99.90
26081;DHT22;13991;51.174;4.438;2023-02-15T00:47:42;7.00;99.90
26081;DHT22;13991;51.174;4.438;2023-02-15T00:50:07;7.00;99.90
26081;DHT22;13991;51.174;4.438;2023-02-15T00:52:33;7.10;99.90
26081;DHT22;13991;51.174;4.438;2023-02-15T00:54:59;7.00;99.90
26081;DHT22;13991;51.174;4.438;2023-02-15T00:57:24;6.90;99.90
26081;DHT22;13991;51.174;4.438;2023-02-15T00:59:50;6.80;99.90
26081;DHT22;13991;51.174;4.438;2023-02-15T01:02:16;6.70;99.90
26081;DHT22;13991;51.174;4.438;2023-02-15T01:04:42;6.80;99.90
26081;DHT22;13991;51.174;4.438;2023-02-15T01:07:08;6.80;99.90
26081;DHT22;13991;51.174;4.438;2023-02-15T01:09:33;6.70;99.90
26081;DHT22;13991;51.174;4.438;2023-02-15T01:11:59;6.80;99.90
26081;DHT22;13991;51.174;4.438;2023-02-15T01:14:24;6.70;99.90
26081;DHT22;13991;51.174;4.438;2023-02-15T01:16:50;6.70;99.90
26081;DHT22;13991;51.174;4.438;2023-02-15T01:19:16;6.70;99.90
26081;DHT22;13991;51.174;4.438;2023-02-15T01:21:41;6.70;99.90
26081;DHT22;13991;51.174;4.438;2023-02-15T01:24:12;6.50;99.90
26081;DHT22;13991;51.174;4.438;2023-02-15T01:26:38;6.50;99.90
26081;DHT22;13991;51.174;4.438;2023-02-15T01:29:04;6.50;99.90
26081;DHT22;13991;51.174;4.438;2023-02-15T01:31:29;6.50;99.90
26081;DHT22;13991;51.174;4.438;2023-02-15T01:33:55;6.40;99.90
26081;DHT22;13991;51.174;4.438;2023-02-15T01:36:21;6.50;99.90
26081;DHT22;13991;51.174;4.438;2023-02-15T01:38:46;6.50;99.90
26081;DHT22;13991;51.174;4.438;2023-02-15T01:41:13;6.60;99.90
26081;DHT22;13991;51.174;4.438;2023-02-15T01:43:47;6.50;99.90
26081;DHT22;13991;51.174;4.438;2023-02-15T01:46:16;6.40;99.90
26081;DHT22;13991;51.174;4.438;2023-02-15T01:49:00;6.30;99.90
26081;DHT22;13991;51.174;4.438;2023-02-15T01:51:29;6.30;99.90
26081;DHT22;13991;51.174;4.438;2023-02-15T01:54:02;6.30;99.90
26081;DHT22;13991;51.174;4.438;2023-02-15T01:56:33;6.30;99.90
26081;DHT22;13991;51.174;4.438;2023-02-15T01:59:04;6.20;99.90
26081;DHT22;13991;51.174;4.438;2023-02-15T02:01:31;6.20;99.90
26081;DHT22;13991;51.174;4.438;2023-02-15T02:04:18;6.10;99.90
26081;DHT22;13991;51.174;4.438;2023-02-15T02:06:49;6.20;99.90
26081;DHT22;13991;51.174;4.438;2023-02-15T02:09:15;6.20;99.90
26081;DHT22;13991;51.174;4.438;2023-02-15T02:11:41;6.20;99.90
26081;DHT22;13991;51.174;4.438;2023-02-15T02:14:10;6.20;99.90
26081;DHT22;13991;51.174;4.438;2023-02-15T02:16:58;6.20;99.90
26081;DHT22;13991;51.174;4.438;2023-02-15T02:33:51;6.00;99.90
26081;DHT22;13991;51.174;4.438;2023-02-15T02:36:34;6.00;99.90
26081;DHT22;13991;51.174;4.438;2023-02-15T02:42:06;6.00;99.90
26081;DHT22;13991;51.174;4.438;2023-02-15T02:44:42;6.00;99.90
26081;DHT22;13991;51.174;4.438;2023-02-15T02:47:10;6.00;99.90
26081;DHT22;13991;51.174;4.438;2023-02-15T02:49:39;5.90;99.90
26081;DHT22;13991;51.174;4.438;2023-02-15T02:54:52;5.80;99.90
26081;DHT22;13991;51.174;4.438;2023-02-15T02:57:18;5.70;99.90
26081;DHT22;13991;51.174;4.438;2023-02-15T02:59:47;5.60;99.90
26081;DHT22;13991;51.174;4.438;2023-02-15T03:02:19;5.60;99.90
26081;DHT22;13991;51.174;4.438;2023-02-15T03:04:53;5.60;99.90
26081;DHT22;13991;51.174;4.438;2023-02-15T03:07:25;5.60;99.90
26081;DHT22;13991;51.174;4.438;2023-02-15T03:09:54;5.60;99.90
26081;DHT22;13991;51.174;4.438;2023-02-15T03:12:24;5.60;99.90
26081;DHT22;13991;51.174;4.438;2023-02-15T03:14:57;5.60;99.90
26081;DHT22;13991;51.174;4.438;2023-02-15T03:17:26;5.60;99.90
26081;DHT22;13991;51.174;4.438;2023-02-15T03:19:55;5.70;99.90
26081;DHT22;13991;51.174;4.438;2023-02-15T03:22:35;5.80;99.90
26081;DHT22;13991;51.174;4.438;2023-02-15T03:25:26;5.90;99.90
26081;DHT22;13991;51.174;4.438;2023-02-15T03:27:58;5.80;99.90
26081;DHT22;13991;51.174;4.438;2023-02-15T03:30:25;5.70;99.90
26081;DHT22;13991;51.174;4.438;2023-02-15T03:32:53;5.60;99.90
26081;DHT22;13991;51.174;4.438;2023-02-15T03:35:23;5.60;99.90
26081;DHT22;13991;51.174;4.438;2023-02-15T03:38:00;5.60;99.90
26081;DHT22;13991;51.174;4.438;2023-02-15T03:40:37;5.60;99.90
26081;DHT22;13991;51.174;4.438;2023-02-15T03:51:44;5.80;99.90
26081;DHT22;13991;51.174;4.438;2023-02-15T03:57:02;5.70;99.90
26081;DHT22;13991;51.174;4.438;2023-02-15T03:59:46;5.70;99.90
26081;DHT22;13991;51.174;4.438;2023-02-15T04:05:19;5.70;99.90
26081;DHT22;13991;51.174;4.438;2023-02-15T04:07:45;5.60;99.90
26081;DHT22;13991;51.174;4.438;2023-02-15T04:10:10;5.60;99.90
26081;DHT22;13991;51.174;4.438;2023-02-15T04:12:54;5.50;99.90
26081;DHT22;13991;51.174;4.438;2023-02-15T04:15:21;5.50;99.90
26081;DHT22;13991;51.174;4.438;2023-02-15T04:18:05;5.40;99.90
26081;DHT22;13991;51.174;4.438;2023-02-15T04:20:31;5.40;99.90
26081;DHT22;13991;51.174;4.438;2023-02-15T04:23:15;5.40;99.90
26081;DHT22;13991;51.174;4.438;2023-02-15T04:26:03;5.40;99.90
26081;DHT22;13991;51.174;4.438;2023-02-15T04:28:29;5.40;99.90
26081;DHT22;13991;51.174;4.438;2023-02-15T04:30:54;5.30;99.90
26081;DHT22;13991;51.174;4.438;2023-02-15T04:33:20;5.30;99.90
26081;DHT22;13991;51.174;4.438;2023-02-15T04:35:45;5.30;99.90
26081;DHT22;13991;51.174;4.438;2023-02-15T04:38:11;5.30;99.90
26081;DHT22;13991;51.174;4.438;2023-02-15T04:40:37;5.30;99.90
26081;DHT22;13991;51.174;4.438;2023-02-15T04:43:02;5.30;99.90
26081;DHT22;13991;51.174;4.438;2023-02-15T04:45:28;5.20;99.90
26081;DHT22;13991;51.174;4.438;2023-02-15T04:47:54;5.20;99.90
26081;DHT22;13991;51.174;4.438;2023-02-15T04:50:19;5.20;99.90
26081;DHT22;13991;51.174;4.438;2023-02-15T04:52:45;5.20;99.90
26081;DHT22;13991;51.174;4.438;2023-02-15T04:55:11;5.10;99.90
26081;DHT22;13991;51.174;4.438;2023-02-15T04:57:37;5.10;99.90
26081;DHT22;13991;51.174;4.438;2023-02-15T05:00:03;5.20;99.90
26081;DHT22;13991;51.174;4.438;2023-02-15T05:02:29;5.20;99.90
26081;DHT22;13991;51.174;4.438;2023-02-15T05:04:54;5.30;99.90
26081;DHT22;13991;51.174;4.438;2023-02-15T05:07:20;5.30;99.90
26081;DHT22;13991;51.174;4.438;2023-02-15T05:09:46;5.30;99.90
26081;DHT22;13991;51.174;4.438;2023-02-15T05:12:11;5.40;99.90
26081;DHT22;13991;51.174;4.438;2023-02-15T05:14:37;5.40;99.90
26081;DHT22;13991;51.174;4.438;2023-02-15T05:17:03;5.40;99.90
26081;DHT22;13991;51.174;4.438;2023-02-15T05:19:30;5.40;99.90
26081;DHT22;13991;51.174;4.438;2023-02-15T05:21:56;5.30;99.90
26081;DHT22;13991;51.174;4.438;2023-02-15T05:24:22;5.30;99.90
26081;DHT22;13991;51.174;4.438;2023-02-15T05:27:06;5.20;99.90
26081;DHT22;13991;51.174;4.438;2023-02-15T05:29:50;5.10;99.90
26081;DHT22;13991;51.174;4.438;2023-02-15T05:32:16;5.00;99.90
26081;DHT22;13991;51.174;4.438;2023-02-15T05:34:41;5.00;99.90
26081;DHT22;13991;51.174;4.438;2023-02-15T05:37:07;5.00;99.90
26081;DHT22;13991;51.174;4.438;2023-02-15T05:39:33;4.90;99.90
26081;DHT22;13991;51.174;4.438;2023-02-15T05:42:00;4.90;99.90
26081;DHT22;13991;51.174;4.438;2023-02-15T05:44:26;4.90;99.90
26081;DHT22;13991;51.174;4.438;2023-02-15T05:46:51;4.80;99.90
26081;DHT22;13991;51.174;4.438;2023-02-15T05:49:17;4.80;99.90
26081;DHT22;13991;51.174;4.438;2023-02-15T05:51:42;4.70;99.90
26081;DHT22;13991;51.174;4.438;2023-02-15T05:54:08;4.70;99.90
26081;DHT22;13991;51.174;4.438;2023-02-15T05:56:34;4.60;99.90
26081;DHT22;13991;51.174;4.438;2023-02-15T05:58:59;4.50;99.90
26081;DHT22;13991;51.174;4.438;2023-02-15T06:01:25;4.60;99.90
26081;DHT22;13991;51.174;4.438;2023-02-15T06:03:51;4.60;99.90
26081;DHT22;13991;51.174;4.438;2023-02-15T06:06:17;4.60;99.90
26081;DHT22;13991;51.174;4.438;2023-02-15T06:08:43;4.60;99.90
26081;DHT22;13991;51.174;4.438;2023-02-15T06:11:09;4.60;99.90
26081;DHT22;13991;51.174;4.438;2023-02-15T06:13:35;4.50;99.90
26081;DHT22;13991;51.174;4.438;2023-02-15T06:16:00;4.50;99.90
26081;DHT22;13991;51.174;4.438;2023-02-15T06:18:26;4.40;99.90
26081;DHT22;13991;51.174;4.438;2023-02-15T06:20:52;4.40;99.90
26081;DHT22;13991;51.174;4.438;2023-02-15T06:23:18;4.30;99.90
26081;DHT22;13991;51.174;4.438;2023-02-15T06:25:47;4.40;99.90
26081;DHT22;13991;51.174;4.438;2023-02-15T06:28:13;4.50;99.90
26081;DHT22;13991;51.174;4.438;2023-02-15T06:30:39;4.50;99.90
26081;DHT22;13991;51.174;4.438;2023-02-15T06:33:04;4.50;99.90
26081;DHT22;13991;51.174;4.438;2023-02-15T06:35:30;4.50;99.90
26081;DHT22;13991;51.174;4.438;2023-02-15T06:37:56;4.50;99.90
26081;DHT22;13991;51.174;4.438;2023-02-15T06:40:22;4.50;99.90
26081;DHT22;13991;51.174;4.438;2023-02-15T06:42:47;4.50;99.90
26081;DHT22;13991;51.174;4.438;2023-02-15T06:45:13;4.60;99.90
26081;DHT22;13991;51.174;4.438;2023-02-15T06:47:39;4.60;99.90
26081;DHT22;13991;51.174;4.438;2023-02-15T06:50:05;4.60;99.90
26081;DHT22;13991;51.174;4.438;2023-02-15T06:52:32;4.70;99.90
26081;DHT22;13991;51.174;4.438;2023-02-15T06:54:57;4.70;99.90
26081;DHT22;13991;51.174;4.438;2023-02-15T06:57:23;4.80;99.90
26081;DHT22;13991;51.174;4.438;2023-02-15T06:59:48;4.80;99.90
26081;DHT22;13991;51.174;4.438;2023-02-15T07:02:14;4.80;99.90
26081;DHT22;13991;51.174;4.438;2023-02-15T07:04:40;4.70;99.90
26081;DHT22;13991;51.174;4.438;2023-02-15T07:07:10;4.70;99.90
26081;DHT22;13991;51.174;4.438;2023-02-15T07:09:36;4.60;99.90
26081;DHT22;13991;51.174;4.438;2023-02-15T07:12:02;4.60;99.90
26081;DHT22;13991;51.174;4.438;2023-02-15T07:14:47;4.70;99.90
26081;DHT22;13991;51.174;4.438;2023-02-15T07:17:12;4.70;99.90
26081;DHT22;13991;51.174;4.438;2023-02-15T07:19:38;4.80;99.90
26081;DHT22;13991;51.174;4.438;2023-02-15T07:22:03;4.90;99.90
26081;DHT22;13991;51.174;4.438;2023-02-15T07:24:30;5.00;99.90
26081;DHT22;13991;51.174;4.438;2023-02-15T07:26:56;5.00;99.90
26081;DHT22;13991;51.174;4.438;2023-02-15T07:29:23;5.00;99.90
26081;DHT22;13991;51.174;4.438;2023-02-15T07:31:49;5.00;99.90
26081;DHT22;13991;51.174;4.438;2023-02-15T07:34:14;5.10;99.90
26081;DHT22;13991;51.174;4.438;2023-02-15T07:36:41;5.10;99.90
26081;DHT22;13991;51.174;4.438;2023-02-15T07:39:07;5.10;99.90
26081;DHT22;13991;51.174;4.438;2023-02-15T07:41:32;5.20;99.90
26081;DHT22;13991;51.174;4.438;2023-02-15T07:43:58;5.30;99.90
26081;DHT22;13991;51.174;4.438;2023-02-15T07:46:23;5.40;99.90
26081;DHT22;13991;51.174;4.438;2023-02-15T07:48:49;5.50;99.90
26081;DHT22;13991;51.174;4.438;2023-02-15T07:51:15;5.50;99.90
26081;DHT22;13991;51.174;4.438;2023-02-15T07:53:41;5.40;99.90
26081;DHT22;13991;51.174;4.438;2023-02-15T07:56:11;5.50;99.90
26081;DHT22;13991;51.174;4.438;2023-02-15T07:58:37;5.50;99.90
26081;DHT22;13991;51.174;4.438;2023-02-15T08:01:30;5.60;99.90
26081;DHT22;13991;51.174;4.438;2023-02-15T08:03:56;5.60;99.90
26081;DHT22;13991;51.174;4.438;2023-02-15T08:06:29;5.60;99.90
26081;DHT22;13991;51.174;4.438;2023-02-15T08:08:55;5.70;99.90
26081;DHT22;13991;51.174;4.438;2023-02-15T08:11:26;5.80;99.90
26081;DHT22;13991;51.174;4.438;2023-02-15T08:14:17;5.90;99.90
26081;DHT22;13991;51.174;4.438;2023-02-15T08:21:43;6.10;99.90
26081;DHT22;13991;51.174;4.438;2023-02-15T08:24:10;6.10;99.90
26081;DHT22;13991;51.174;4.438;2023-02-15T08:26:37;6.20;99.90
26081;DHT22;13991;51.174;4.438;2023-02-15T08:29:04;6.30;99.90
26081;DHT22;13991;51.174;4.438;2023-02-15T08:31:32;6.40;99.90
26081;DHT22;13991;51.174;4.438;2023-02-15T08:33:58;6.50;99.90
26081;DHT22;13991;51.174;4.438;2023-02-15T08:36:27;6.50;99.90
26081;DHT22;13991;51.174;4.438;2023-02-15T08:38:55;6.50;99.90
26081;DHT22;13991;51.174;4.438;2023-02-15T08:41:24;6.50;99.90
26081;DHT22;13991;51.174;4.438;2023-02-15T08:43:55;6.60;99.90
26081;DHT22;13991;51.174;4.438;2023-02-15T08:46:23;6.60;99.90
26081;DHT22;13991;51.174;4.438;2023-02-15T08:48:49;6.60;99.90
26081;DHT22;13991;51.174;4.438;2023-02-15T08:51:17;6.70;99.90
26081;DHT22;13991;51.174;4.438;2023-02-15T08:53:49;6.90;99.90
26081;DHT22;13991;51.174;4.438;2023-02-15T08:56:15;7.00;99.90
26081;DHT22;13991;51.174;4.438;2023-02-15T08:58:41;7.10;99.90
26081;DHT22;13991;51.174;4.438;2023-02-15T09:01:16;7.20;99.90
26081;DHT22;13991;51.174;4.438;2023-02-15T09:03:50;7.40;99.90
26081;DHT22;13991;51.174;4.438;2023-02-15T09:06:18;7.50;99.90
26081;DHT22;13991;51.174;4.438;2023-02-15T09:08:44;7.60;99.90
26081;DHT22;13991;51.174;4.438;2023-02-15T09:11:12;7.70;99.90
26081;DHT22;13991;51.174;4.438;2023-02-15T09:13:39;7.80;99.90
26081;DHT22;13991;51.174;4.438;2023-02-15T09:16:07;7.90;99.90
26081;DHT22;13991;51.174;4.438;2023-02-15T09:18:36;7.90;99.90
26081;DHT22;13991;51.174;4.438;2023-02-15T09:21:12;8.00;99.90
26081;DHT22;13991;51.174;4.438;2023-02-15T09:23:42;8.10;99.90
26081;DHT22;13991;51.174;4.438;2023-02-15T09:26:14;8.10;99.90
26081;DHT22;13991;51.174;4.438;2023-02-15T09:28:41;8.30;99.90
26081;DHT22;13991;51.174;4.438;2023-02-15T09:31:18;8.40;99.90
26081;DHT22;13991;51.174;4.438;2023-02-15T09:33:46;8.40;99.90
26081;DHT22;13991;51.174;4.438;2023-02-15T09:36:18;8.50;99.90
26081;DHT22;13991;51.174;4.438;2023-02-15T09:38:45;8.60;99.90
26081;DHT22;13991;51.174;4.438;2023-02-15T10:01:44;10.10;99.90
26081;DHT22;13991;51.174;4.438;2023-02-15T10:23:30;10.90;99.90
26081;DHT22;13991;51.174;4.438;2023-02-15T10:26:14;11.00;99.90
26081;DHT22;13991;51.174;4.438;2023-02-15T10:29:09;11.20;99.90
26081;DHT22;13991;51.174;4.438;2023-02-15T10:31:48;11.40;99.90
26081;DHT22;13991;51.174;4.438;2023-02-15T10:34:15;11.40;99.90
26081;DHT22;13991;51.174;4.438;2023-02-15T10:45:31;11.70;99.90
26081;DHT22;13991;51.174;4.438;2023-02-15T10:50:56;12.00;99.90
26081;DHT22;13991;51.174;4.438;2023-02-15T10:56:38;12.40;99.90
26081;DHT22;13991;51.174;4.438;2023-02-15T11:01:51;12.30;99.90
26081;DHT22;13991;51.174;4.438;2023-02-15T11:07:15;12.60;99.90
26081;DHT22;13991;51.174;4.438;2023-02-15T11:09:46;12.80;99.90
26081;DHT22;13991;51.174;4.438;2023-02-15T11:12:17;12.90;99.90
26081;DHT22;13991;51.174;4.438;2023-02-15T11:16:01;12.70;99.90
26081;DHT22;13991;51.174;4.438;2023-02-15T11:18:13;12.60;99.90
26081;DHT22;13991;51.174;4.438;2023-02-15T11:23:43;12.60;99.90
26081;DHT22;13991;51.174;4.438;2023-02-15T11:26:28;12.40;99.90
26081;DHT22;13991;51.174;4.438;2023-02-15T11:28:59;12.20;99.90
26081;DHT22;13991;51.174;4.438;2023-02-15T11:31:34;12.40;99.90
26081;DHT22;13991;51.174;4.438;2023-02-15T11:34:05;12.50;99.90
26081;DHT22;13991;51.174;4.438;2023-02-15T11:36:39;12.30;99.90
26081;DHT22;13991;51.174;4.438;2023-02-15T11:39:14;12.40;99.90
26081;DHT22;13991;51.174;4.438;2023-02-15T11:41:53;12.10;99.90
26081;DHT22;13991;51.174;4.438;2023-02-15T11:44:30;12.10;99.90
26081;DHT22;13991;51.174;4.438;2023-02-15T11:46:58;12.10;99.90
26081;DHT22;13991;51.174;4.438;2023-02-15T11:51:56;12.20;99.90
26081;DHT22;13991;51.174;4.438;2023-02-15T11:54:28;12.10;99.90
26081;DHT22;13991;51.174;4.438;2023-02-15T11:59:37;12.30;99.90
26081;DHT22;13991;51.174;4.438;2023-02-15T12:02:16;12.40;99.90
26081;DHT22;13991;51.174;4.438;2023-02-15T12:04:52;12.30;99.90
26081;DHT22;13991;51.174;4.438;2023-02-15T12:07:34;12.60;99.90
26081;DHT22;13991;51.174;4.438;2023-02-15T12:15:34;13.00;99.90
26081;DHT22;13991;51.174;4.438;2023-02-15T12:18:00;12.80;99.90
26081;DHT22;13991;51.174;4.438;2023-02-15T12:20:32;12.70;99.90
26081;DHT22;13991;51.174;4.438;2023-02-15T12:23:04;13.10;99.90
26081;DHT22;13991;51.174;4.438;2023-02-15T12:28:25;13.30;99.90
26081;DHT22;13991;51.174;4.438;2023-02-15T12:30:53;13.60;99.90
26081;DHT22;13991;51.174;4.438;2023-02-15T12:36:17;13.70;99.90
26081;DHT22;13991;51.174;4.438;2023-02-15T12:38:43;14.00;99.90
26081;DHT22;13991;51.174;4.438;2023-02-15T12:41:27;14.00;99.90
26081;DHT22;13991;51.174;4.438;2023-02-15T12:44:17;14.10;99.90
26081;DHT22;13991;51.174;4.438;2023-02-15T12:47:05;14.20;99.90
26081;DHT22;13991;51.174;4.438;2023-02-15T12:49:36;14.20;99.90
26081;DHT22;13991;51.174;4.438;2023-02-15T12:52:27;14.40;99.90
26081;DHT22;13991;51.174;4.438;2023-02-15T12:54:52;14.50;99.90
26081;DHT22;13991;51.174;4.438;2023-02-15T12:57:32;14.60;99.90
26081;DHT22;13991;51.174;4.438;2023-02-15T13:02:49;14.60;99.90
26081;DHT22;13991;51.174;4.438;2023-02-15T13:05:22;14.50;99.90
26081;DHT22;13991;51.174;4.438;2023-02-15T13:10:30;14.60;99.90
26081;DHT22;13991;51.174;4.438;2023-02-15T13:12:57;14.90;99.90
26081;DHT22;13991;51.174;4.438;2023-02-15T13:15:26;14.80;99.90
26081;DHT22;13991;51.174;4.438;2023-02-15T13:17:54;14.80;99.90
26081;DHT22;13991;51.174;4.438;2023-02-15T13:20:21;14.80;99.90
26081;DHT22;13991;51.174;4.438;2023-02-15T13:22:51;14.90;99.90
26081;DHT22;13991;51.174;4.438;2023-02-15T13:25:23;15.10;99.90
26081;DHT22;13991;51.174;4.438;2023-02-15T13:27:54;14.80;99.90
26081;DHT22;13991;51.174;4.438;2023-02-15T13:30:40;14.70;99.90
26081;DHT22;13991;51.174;4.438;2023-02-15T13:33:32;14.80;99.90
26081;DHT22;13991;51.174;4.438;2023-02-15T13:41:27;14.90;99.90
26081;DHT22;13991;51.174;4.438;2023-02-15T13:49:49;14.60;99.90
26081;DHT22;13991;51.174;4.438;2023-02-15T14:03:47;15.10;99.90
26081;DHT22;13991;51.174;4.438;2023-02-15T14:11:44;14.90;99.90
26081;DHT22;13991;51.174;4.438;2023-02-15T14:14:26;14.50;99.90
26081;DHT22;13991;51.174;4.438;2023-02-15T14:17:06;14.80;99.90
26081;DHT22;13991;51.174;4.438;2023-02-15T14:19:52;15.10;99.90
26081;DHT22;13991;51.174;4.438;2023-02-15T14:30:56;15.20;99.90
26081;DHT22;13991;51.174;4.438;2023-02-15T14:36:08;15.20;99.90
26081;DHT22;13991;51.174;4.438;2023-02-15T14:44:17;15.20;99.90
26081;DHT22;13991;51.174;4.438;2023-02-15T14:49:21;15.00;99.90
26081;DHT22;13991;51.174;4.438;2023-02-15T14:59:25;14.80;99.90
26081;DHT22;13991;51.174;4.438;2023-02-15T15:02:03;14.70;99.90
26081;DHT22;13991;51.174;4.438;2023-02-15T15:04:38;14.70;99.90
26081;DHT22;13991;51.174;4.438;2023-02-15T15:07:23;14.60;99.90
26081;DHT22;13991;51.174;4.438;2023-02-15T15:12:46;14.50;99.90
26081;DHT22;13991;51.174;4.438;2023-02-15T15:25:53;14.40;99.90
26081;DHT22;13991;51.174;4.438;2023-02-15T15:31:26;14.40;99.90
26081;DHT22;13991;51.174;4.438;2023-02-15T15:49:55;14.10;99.90
26081;DHT22;13991;51.174;4.438;2023-02-15T15:52:22;14.00;99.90
26081;DHT22;13991;51.174;4.438;2023-02-15T15:54:55;14.00;99.90
26081;DHT22;13991;51.174;4.438;2023-02-15T15:57:25;13.90;99.90
26081;DHT22;13991;51.174;4.438;2023-02-15T15:59:53;13.90;99.90
26081;DHT22;13991;51.174;4.438;2023-02-15T16:02:20;13.80;99.90
26081;DHT22;13991;51.174;4.438;2023-02-15T16:04:46;13.70;99.90
26081;DHT22;13991;51.174;4.438;2023-02-15T16:10:27;13.60;99.90
26081;DHT22;13991;51.174;4.438;2023-02-15T16:12:33;13.50;99.90
26081;DHT22;13991;51.174;4.438;2023-02-15T16:15:04;13.40;99.90
26081;DHT22;13991;51.174;4.438;2023-02-15T16:17:31;13.40;99.90
26081;DHT22;13991;51.174;4.438;2023-02-15T16:20:03;13.30;99.90
26081;DHT22;13991;51.174;4.438;2023-02-15T16:22:31;13.10;99.90
26081;DHT22;13991;51.174;4.438;2023-02-15T16:29:57;12.90;99.90
26081;DHT22;13991;51.174;4.438;2023-02-15T16:32:25;12.80;99.90
26081;DHT22;13991;51.174;4.438;2023-02-15T16:35:02;12.80;99.90
26081;DHT22;13991;51.174;4.438;2023-02-15T16:37:33;12.60;99.90
26081;DHT22;13991;51.174;4.438;2023-02-15T16:39:59;12.50;99.90
26081;DHT22;13991;51.174;4.438;2023-02-15T16:42:25;12.50;99.90
26081;DHT22;13991;51.174;4.438;2023-02-15T16:45:05;12.40;99.90
26081;DHT22;13991;51.174;4.438;2023-02-15T16:47:40;12.30;99.90
26081;DHT22;13991;51.174;4.438;2023-02-15T16:50:07;12.30;99.90
26081;DHT22;13991;51.174;4.438;2023-02-15T16:52:43;12.30;99.90
26081;DHT22;13991;51.174;4.438;2023-02-15T16:55:23;12.30;99.90
26081;DHT22;13991;51.174;4.438;2023-02-15T16:57:50;12.20;99.90
26081;DHT22;13991;51.174;4.438;2023-02-15T17:00:19;12.10;99.90
26081;DHT22;13991;51.174;4.438;2023-02-15T17:05:32;12.00;99.90
26081;DHT22;13991;51.174;4.438;2023-02-15T17:08:15;11.90;99.90
26081;DHT22;13991;51.174;4.438;2023-02-15T17:10:44;11.80;99.90
26081;DHT22;13991;51.174;4.438;2023-02-15T17:13:15;11.70;99.90
26081;DHT22;13991;51.174;4.438;2023-02-15T17:16:25;11.70;99.90
26081;DHT22;13991;51.174;4.438;2023-02-15T17:18:38;11.70;99.90
26081;DHT22;13991;51.174;4.438;2023-02-15T17:21:19;11.60;99.90
26081;DHT22;13991;51.174;4.438;2023-02-15T17:23:48;11.50;99.90
26081;DHT22;13991;51.174;4.438;2023-02-15T17:26:21;11.50;99.90
26081;DHT22;13991;51.174;4.438;2023-02-15T17:28:51;11.50;99.90
26081;DHT22;13991;51.174;4.438;2023-02-15T17:31:19;11.40;99.90
26081;DHT22;13991;51.174;4.438;2023-02-15T17:33:45;11.40;99.90
26081;DHT22;13991;51.174;4.438;2023-02-15T17:36:20;11.30;99.90
26081;DHT22;13991;51.174;4.438;2023-02-15T17:41:29;11.30;99.90
26081;DHT22;13991;51.174;4.438;2023-02-15T17:43:56;11.10;99.90
26081;DHT22;13991;51.174;4.438;2023-02-15T17:46:23;11.20;99.90
26081;DHT22;13991;51.174;4.438;2023-02-15T17:48:54;11.20;99.90
26081;DHT22;13991;51.174;4.438;2023-02-15T17:51:21;11.20;99.90
26081;DHT22;13991;51.174;4.438;2023-02-15T17:53:47;11.10;99.90
26081;DHT22;13991;51.174;4.438;2023-02-15T17:56:35;11.10;99.90
26081;DHT22;13991;51.174;4.438;2023-02-15T17:59:02;11.10;99.90
26081;DHT22;13991;51.174;4.438;2023-02-15T18:01:33;11.10;99.90
26081;DHT22;13991;51.174;4.438;2023-02-15T18:04:17;10.90;99.90
26081;DHT22;13991;51.174;4.438;2023-02-15T18:07:02;10.90;99.90
26081;DHT22;13991;51.174;4.438;2023-02-15T18:09:46;11.10;99.90
26081;DHT22;13991;51.174;4.438;2023-02-15T18:12:33;11.00;99.90
26081;DHT22;13991;51.174;4.438;2023-02-15T18:14:59;11.00;99.90
26081;DHT22;13991;51.174;4.438;2023-02-15T18:20:01;10.90;99.90
26081;DHT22;13991;51.174;4.438;2023-02-15T18:22:30;10.80;99.90
26081;DHT22;13991;51.174;4.438;2023-02-15T18:24:56;10.90;99.90
26081;DHT22;13991;51.174;4.438;2023-02-15T18:27:22;10.70;99.90
26081;DHT22;13991;51.174;4.438;2023-02-15T18:29:48;10.70;99.90
26081;DHT22;13991;51.174;4.438;2023-02-15T18:32:21;10.70;99.90
26081;DHT22;13991;51.174;4.438;2023-02-15T18:34:48;10.70;99.90
26081;DHT22;13991;51.174;4.438;2023-02-15T18:37:19;10.80;99.90
26081;DHT22;13991;51.174;4.438;2023-02-15T18:42:21;10.80;99.90
26081;DHT22;13991;51.174;4.438;2023-02-15T18:44:52;10.70;99.90
26081;DHT22;13991;51.174;4.438;2023-02-15T18:47:18;10.70;99.90
26081;DHT22;13991;51.174;4.438;2023-02-15T18:49:43;10.70;99.90
26081;DHT22;13991;51.174;4.438;2023-02-15T18:52:17;10.70;99.90
26081;DHT22;13991;51.174;4.438;2023-02-15T18:54:44;10.70;99.90
26081;DHT22;13991;51.174;4.438;2023-02-15T18:57:14;10.70;99.90
26081;DHT22;13991;51.174;4.438;2023-02-15T18:59:40;10.70;99.90
26081;DHT22;13991;51.174;4.438;2023-02-15T19:02:14;10.70;99.90
26081;DHT22;13991;51.174;4.438;2023-02-15T19:04:41;10.60;99.90
26081;DHT22;13991;51.174;4.438;2023-02-15T19:07:21;10.60;99.90
26081;DHT22;13991;51.174;4.438;2023-02-15T19:09:50;10.50;99.90
26081;DHT22;13991;51.174;4.438;2023-02-15T19:12:16;10.50;99.90
26081;DHT22;13991;51.174;4.438;2023-02-15T19:14:44;10.40;99.90
26081;DHT22;13991;51.174;4.438;2023-02-15T19:17:20;10.30;99.90
26081;DHT22;13991;51.174;4.438;2023-02-15T19:19:46;10.30;99.90
26081;DHT22;13991;51.174;4.438;2023-02-15T19:22:20;10.20;99.90
26081;DHT22;13991;51.174;4.438;2023-02-15T19:24:47;10.10;99.90
26081;DHT22;13991;51.174;4.438;2023-02-15T19:27:30;10.10;99.90
26081;DHT22;13991;51.174;4.438;2023-02-15T19:29:58;10.00;99.90
26081;DHT22;13991;51.174;4.438;2023-02-15T19:32:25;9.90;99.90
26081;DHT22;13991;51.174;4.438;2023-02-15T19:34:55;10.00;99.90
26081;DHT22;13991;51.174;4.438;2023-02-15T19:37:37;10.00;99.90
26081;DHT22;13991;51.174;4.438;2023-02-15T19:40:06;10.00;99.90
26081;DHT22;13991;51.174;4.438;2023-02-15T19:42:32;10.00;99.90
26081;DHT22;13991;51.174;4.438;2023-02-15T19:44:59;9.80;99.90
26081;DHT22;13991;51.174;4.438;2023-02-15T19:47:27;9.60;99.90
26081;DHT22;13991;51.174;4.438;2023-02-15T19:49:52;9.60;99.90